createdAt,value
2023-03-06T00:00:54.234Z,4.79
2023-03-06T00:03:22.383Z,4.82
2023-03-06T00:05:49.175Z,4.90
2023-03-06T00:08:15.981Z,5.00
2023-03-06T00:10:42.663Z,4.83
2023-03-06T00:13:12.694Z,4.95
2023-03-06T00:15:39.446Z,4.94
2023-03-06T00:18:06.674Z,5.01
2023-03-06T00:20:34.683Z,4.93
2023-03-06T00:23:01.385Z,4.95
2023-03-06T00:25:27.971Z,4.94
2023-03-06T00:27:54.540Z,4.93
2023-03-06T00:30:23.176Z,4.98
2023-03-06T00:32:50.025Z,4.89
2023-03-06T00:35:17.088Z,4.81
2023-03-06T00:37:49.734Z,4.80
2023-03-06T00:40:18.728Z,4.77
2023-03-06T00:42:47.340Z,4.75
2023-03-06T00:45:14.380Z,4.87
2023-03-06T00:47:41.709Z,4.80
2023-03-06T00:50:09.660Z,4.75
2023-03-06T00:52:36.551Z,4.74
2023-03-06T00:55:03.358Z,4.80
2023-03-06T00:57:29.960Z,4.79
2023-03-06T00:59:56.625Z,4.88
2023-03-06T01:02:23.295Z,4.86
2023-03-06T01:04:49.987Z,4.90
2023-03-06T01:07:16.632Z,4.89
2023-03-06T01:09:43.331Z,4.93
2023-03-06T01:12:10.277Z,4.95
2023-03-06T01:14:37.008Z,4.93
2023-03-06T01:17:03.895Z,4.90
2023-03-06T01:19:30.759Z,5.01
2023-03-06T01:21:57.430Z,4.98
2023-03-06T01:24:25.858Z,4.98
2023-03-06T01:26:52.607Z,4.96
2023-03-06T01:29:19.317Z,4.94
2023-03-06T01:31:46.082Z,4.90
2023-03-06T01:34:12.692Z,4.75
2023-03-06T01:36:39.298Z,4.67
2023-03-06T01:39:06.052Z,4.61
2023-03-06T01:41:33.066Z,4.55
2023-03-06T01:43:59.937Z,4.49
2023-03-06T01:46:38.868Z,4.54
2023-03-06T01:49:24.123Z,4.53
2023-03-06T01:52:11.718Z,4.63
2023-03-06T01:54:42.469Z,4.65
2023-03-06T01:57:13.192Z,4.63
2023-03-06T01:59:40.930Z,4.70
2023-03-06T02:02:09.282Z,4.78
2023-03-06T02:04:36.877Z,4.82
2023-03-06T02:07:06.952Z,4.77
2023-03-06T02:09:34.852Z,4.71
2023-03-06T02:12:03.433Z,4.55
2023-03-06T02:14:30.304Z,4.63
2023-03-06T02:16:57.120Z,4.61
2023-03-06T02:19:46.128Z,4.55
2023-03-06T02:22:12.900Z,4.60
2023-03-06T02:24:47.934Z,4.59
2023-03-06T02:27:15.353Z,4.56
2023-03-06T02:29:42.118Z,4.51
2023-03-06T02:32:08.973Z,4.59
2023-03-06T02:34:38.699Z,4.65
2023-03-06T02:37:09.102Z,4.74
2023-03-06T02:39:40.570Z,4.73
2023-03-06T02:42:07.307Z,4.69
2023-03-06T02:44:34.856Z,4.59
2023-03-06T02:47:01.659Z,4.58
2023-03-06T02:49:28.410Z,4.63
2023-03-06T02:51:55.034Z,4.63
2023-03-06T02:54:24.815Z,4.69
2023-03-06T02:56:51.409Z,4.55
2023-03-06T02:59:18.057Z,4.45
2023-03-06T03:01:44.734Z,4.44
2023-03-06T03:04:11.353Z,4.46
2023-03-06T03:06:38.037Z,4.36
2023-03-06T03:09:04.640Z,4.32
2023-03-06T03:11:31.252Z,4.35
2023-03-06T03:13:57.889Z,4.36
2023-03-06T03:16:24.672Z,4.34
2023-03-06T03:18:51.401Z,4.37
2023-03-06T03:21:18.536Z,4.30
2023-03-06T03:23:45.303Z,4.38
2023-03-06T03:26:17.411Z,4.43
2023-03-06T03:28:44.391Z,4.32
2023-03-06T03:31:11.566Z,4.30
2023-03-06T03:33:38.975Z,4.28
2023-03-06T03:36:07.642Z,4.35
2023-03-06T03:38:34.761Z,4.35
2023-03-06T03:41:01.912Z,4.37
2023-03-06T03:43:28.549Z,4.39
2023-03-06T03:45:55.121Z,4.46
2023-03-06T03:48:21.936Z,4.50
2023-03-06T03:50:48.759Z,4.38
2023-03-06T03:53:15.390Z,4.39
2023-03-06T03:55:42.027Z,4.39
2023-03-06T03:58:08.715Z,4.26
2023-03-06T04:00:35.374Z,4.33
2023-03-06T04:03:01.997Z,4.33
2023-03-06T04:05:28.601Z,4.29
2023-03-06T04:07:55.222Z,4.28
2023-03-06T04:10:21.851Z,4.30
2023-03-06T04:12:48.428Z,4.29
2023-03-06T04:15:15.015Z,4.36
2023-03-06T04:17:41.614Z,4.43
2023-03-06T04:20:08.953Z,4.52
2023-03-06T04:22:35.611Z,4.55
2023-03-06T04:25:02.246Z,4.36
2023-03-06T04:27:28.886Z,4.32
2023-03-06T04:29:56.530Z,4.27
2023-03-06T04:32:24.066Z,4.26
2023-03-06T04:34:50.943Z,4.37
2023-03-06T04:37:22.605Z,4.31
2023-03-06T04:39:49.302Z,4.41
2023-03-06T04:42:16.153Z,4.46
2023-03-06T04:44:42.796Z,4.48
2023-03-06T04:47:10.011Z,4.43
2023-03-06T04:49:36.763Z,4.22
2023-03-06T04:52:04.391Z,4.24
2023-03-06T04:54:31.113Z,4.23
2023-03-06T04:56:57.875Z,4.19
2023-03-06T04:59:24.677Z,4.15
2023-03-06T05:01:51.408Z,4.09
2023-03-06T05:04:18.072Z,4.08
2023-03-06T05:06:44.737Z,4.04
2023-03-06T05:09:11.426Z,4.06
2023-03-06T05:11:38.106Z,4.16
2023-03-06T05:14:04.892Z,4.17
2023-03-06T05:16:31.607Z,4.11
2023-03-06T05:18:58.236Z,4.03
2023-03-06T05:21:24.840Z,3.95
2023-03-06T05:23:51.394Z,3.88
2023-03-06T05:26:17.982Z,3.85
2023-03-06T05:28:44.929Z,3.86
2023-03-06T05:31:11.606Z,3.92
2023-03-06T05:33:38.249Z,3.87
2023-03-06T05:36:05.290Z,3.86
2023-03-06T05:38:32.497Z,3.83
2023-03-06T05:40:59.099Z,3.75
2023-03-06T05:43:25.821Z,3.69
2023-03-06T05:46:00.418Z,3.77
2023-03-06T05:48:27.102Z,3.84
2023-03-06T05:50:57.726Z,3.79
2023-03-06T05:53:24.475Z,3.78
2023-03-06T05:56:04.596Z,3.86
2023-03-06T05:58:32.810Z,3.80
2023-03-06T06:00:59.802Z,3.86
2023-03-06T06:03:26.819Z,3.77
2023-03-06T06:05:53.616Z,3.83
2023-03-06T06:08:20.812Z,3.94
2023-03-06T06:10:47.538Z,4.06
2023-03-06T06:13:14.287Z,4.05
2023-03-06T06:15:40.987Z,4.00
2023-03-06T06:18:08.007Z,4.03
2023-03-06T06:20:35.593Z,4.05
2023-03-06T06:23:10.350Z,3.98
2023-03-06T06:25:37.706Z,3.98
2023-03-06T06:28:05.867Z,3.87
2023-03-06T06:30:33.733Z,3.86
2023-03-06T06:33:00.704Z,3.84
2023-03-06T06:35:27.484Z,3.85
2023-03-06T06:37:54.107Z,3.76
2023-03-06T06:40:22.980Z,3.76
2023-03-06T06:42:49.630Z,3.81
2023-03-06T06:45:16.765Z,3.88
2023-03-06T06:47:44.030Z,3.85
2023-03-06T06:50:13.008Z,3.78
2023-03-06T06:52:39.759Z,3.86
2023-03-06T06:55:06.792Z,3.75
2023-03-06T06:57:33.484Z,3.80
2023-03-06T07:00:00.180Z,3.80
2023-03-06T07:02:27.066Z,3.87
2023-03-06T07:05:05.937Z,3.85
2023-03-06T07:07:37.536Z,3.87
2023-03-06T07:10:06.845Z,3.99
2023-03-06T07:12:35.262Z,4.02
2023-03-06T07:15:02.284Z,4.03
2023-03-06T07:17:29.278Z,3.97
2023-03-06T07:19:55.989Z,3.97
2023-03-06T07:22:23.386Z,4.03
2023-03-06T07:24:50.146Z,3.96
2023-03-06T07:27:16.857Z,4.01
2023-03-06T07:29:43.917Z,3.98
2023-03-06T07:32:16.670Z,3.99
2023-03-06T07:34:44.889Z,4.02
2023-03-06T07:37:11.830Z,4.03
2023-03-06T07:39:38.532Z,4.11
2023-03-06T07:42:07.671Z,4.07
2023-03-06T07:44:38.031Z,4.09
2023-03-06T07:47:05.579Z,4.13
2023-03-06T07:49:32.568Z,4.20
2023-03-06T07:52:04.392Z,4.10
2023-03-06T07:54:32.797Z,4.06
2023-03-06T07:56:59.435Z,4.13
2023-03-06T07:59:26.147Z,4.18
2023-03-06T08:01:55.114Z,4.18
2023-03-06T08:04:21.925Z,4.21
2023-03-06T08:06:50.110Z,4.22
2023-03-06T08:09:16.796Z,4.28
2023-03-06T08:11:45.432Z,4.23
2023-03-06T08:14:12.172Z,4.20
2023-03-06T08:16:38.891Z,4.32
2023-03-06T08:19:05.646Z,4.30
2023-03-06T08:21:32.408Z,4.21
2023-03-06T08:23:59.485Z,4.32
2023-03-06T08:26:29.183Z,4.34
2023-03-06T08:28:57.563Z,4.26
2023-03-06T08:31:34.501Z,4.26
2023-03-06T08:34:06.894Z,4.28
2023-03-06T08:36:33.754Z,4.25
2023-03-06T08:39:00.752Z,4.28
2023-03-06T08:41:27.517Z,4.32
2023-03-06T08:43:54.245Z,4.18
2023-03-06T08:46:22.549Z,4.13
2023-03-06T08:48:49.312Z,4.24
2023-03-06T08:51:16.867Z,4.27
2023-03-06T08:53:44.548Z,4.11
2023-03-06T08:56:19.297Z,4.01
2023-03-06T08:58:46.427Z,4.04
2023-03-06T09:01:17.777Z,4.08
2023-03-06T09:03:44.744Z,4.01
2023-03-06T09:06:11.746Z,4.12
2023-03-06T09:08:38.637Z,4.23
2023-03-06T09:11:05.331Z,4.24
2023-03-06T09:13:31.989Z,4.32
2023-03-06T09:15:58.615Z,4.24
2023-03-06T09:18:25.287Z,4.36
2023-03-06T09:20:51.965Z,4.41
2023-03-06T09:23:18.633Z,4.47
2023-03-06T09:25:46.200Z,4.49
2023-03-06T09:28:12.913Z,4.64
2023-03-06T09:30:41.161Z,4.69
2023-03-06T09:33:08.315Z,4.69
2023-03-06T09:35:35.633Z,4.71
2023-03-06T09:38:02.380Z,4.69
2023-03-06T09:41:02.980Z,4.69
2023-03-06T09:43:38.511Z,4.64
2023-03-06T09:46:29.870Z,4.62
2023-03-06T09:49:10.485Z,4.49
2023-03-06T09:51:47.320Z,4.55
2023-03-06T09:54:15.538Z,4.57
2023-03-06T09:56:49.940Z,4.53
2023-03-06T09:59:20.928Z,4.52
2023-03-06T10:02:28.372Z,4.49
2023-03-06T10:05:01.233Z,4.39
2023-03-06T10:07:38.928Z,4.36
2023-03-06T10:10:07.348Z,4.34
2023-03-06T10:12:40.430Z,4.43
2023-03-06T10:15:14.723Z,4.41
2023-03-06T10:17:42.710Z,4.60
2023-03-06T10:20:24.693Z,4.81
2023-03-06T10:23:13.316Z,4.89
2023-03-06T10:25:52.530Z,5.02
2023-03-06T10:28:30.589Z,5.09
2023-03-06T10:31:13.808Z,5.20
2023-03-06T10:33:43.422Z,5.27
2023-03-06T10:36:16.620Z,5.10
2023-03-06T10:38:44.600Z,5.16
2023-03-06T10:41:11.146Z,5.22
2023-03-06T10:43:45.142Z,5.21
2023-03-06T10:46:13.750Z,5.39
2023-03-06T10:48:42.452Z,5.53
2023-03-06T10:51:19.032Z,5.54
2023-03-06T10:53:53.734Z,5.67
2023-03-06T10:56:41.436Z,5.75
2023-03-06T10:59:29.479Z,5.67
2023-03-06T11:01:58.142Z,5.75
2023-03-06T11:04:30.436Z,5.95
2023-03-06T11:07:07.783Z,6.36
2023-03-06T11:09:34.793Z,6.43
2023-03-06T11:12:32.387Z,6.36
2023-03-06T11:15:14.413Z,6.54
2023-03-06T11:18:28.531Z,7.18
2023-03-06T11:20:55.895Z,7.06
2023-03-06T11:23:22.500Z,6.68
2023-03-06T11:26:01.439Z,6.55
2023-03-06T11:28:34.122Z,6.54
2023-03-06T11:31:03.726Z,6.47
2023-03-06T11:34:02.593Z,6.39
2023-03-06T11:36:55.594Z,6.39
2023-03-06T11:39:37.384Z,6.50
2023-03-06T11:42:13.119Z,6.38
2023-03-06T11:45:18.156Z,6.49
2023-03-06T11:47:50.368Z,6.62
2023-03-06T11:50:28.604Z,7.37
2023-03-06T11:53:00.512Z,8.22
2023-03-06T11:55:51.022Z,8.53
2023-03-06T11:58:38.391Z,8.50
2023-03-06T12:01:17.052Z,8.76
2023-03-06T12:03:50.356Z,8.64
2023-03-06T12:06:44.901Z,8.58
2023-03-06T12:09:24.537Z,8.96
2023-03-06T12:12:14.803Z,8.71
2023-03-06T12:14:50.482Z,8.52
2023-03-06T12:17:29.888Z,8.15
2023-03-06T12:20:32.085Z,8.26
2023-03-06T12:23:17.035Z,8.83
2023-03-06T12:25:49.166Z,8.96
2023-03-06T12:28:45.990Z,9.24
2023-03-06T12:31:13.016Z,9.42
2023-03-06T12:34:10.223Z,9.17
2023-03-06T12:36:48.993Z,9.40
2023-03-06T12:39:43.742Z,9.06
2023-03-06T12:42:39.317Z,8.92
2023-03-06T12:45:30.001Z,8.75
2023-03-06T12:47:57.926Z,9.15
2023-03-06T12:50:38.284Z,9.20
2023-03-06T12:53:07.599Z,8.93
2023-03-06T12:55:42.850Z,8.99
2023-03-06T12:58:30.683Z,9.78
2023-03-06T13:01:15.708Z,10.43
2023-03-06T13:04:19.720Z,10.74
2023-03-06T13:07:14.434Z,10.70
2023-03-06T13:10:02.408Z,10.85
2023-03-06T13:12:50.200Z,10.76
2023-03-06T13:15:38.340Z,10.41
2023-03-06T13:18:23.362Z,10.08
2023-03-06T13:20:57.602Z,10.24
2023-03-06T13:23:43.087Z,10.28
2023-03-06T13:26:12.628Z,9.51
2023-03-06T13:28:45.172Z,9.17
2023-03-06T13:31:27.682Z,8.70
2023-03-06T13:34:03.167Z,8.46
2023-03-06T13:36:39.904Z,8.50
2023-03-06T13:39:10.119Z,8.54
2023-03-06T13:41:41.756Z,8.69
2023-03-06T13:44:28.536Z,9.27
2023-03-06T13:47:39.757Z,9.75
2023-03-06T13:50:57.094Z,9.69
2023-03-06T13:53:23.694Z,9.24
2023-03-06T13:55:56.571Z,8.72
2023-03-06T13:58:41.819Z,8.51
2023-03-06T14:01:33.498Z,8.45
2023-03-06T14:04:18.957Z,8.13
2023-03-06T14:07:01.700Z,8.17
2023-03-06T14:09:32.392Z,8.31
2023-03-06T14:12:07.514Z,8.28
2023-03-06T14:14:39.656Z,8.33
2023-03-06T14:17:21.921Z,8.65
2023-03-06T14:19:49.163Z,8.75
2023-03-06T14:22:23.182Z,8.95
2023-03-06T14:25:05.833Z,8.95
2023-03-06T14:27:47.880Z,9.06
2023-03-06T14:30:17.546Z,9.28
2023-03-06T14:32:44.494Z,9.16
2023-03-06T14:35:21.405Z,8.98
2023-03-06T14:37:52.521Z,9.00
2023-03-06T14:40:28.099Z,8.92
2023-03-06T14:43:33.845Z,9.06
2023-03-06T14:46:08.014Z,8.77
2023-03-06T14:48:39.434Z,8.59
2023-03-06T14:51:07.790Z,8.40
2023-03-06T14:53:34.988Z,8.10
2023-03-06T14:56:05.935Z,7.95
2023-03-06T14:58:43.947Z,7.84
2023-03-06T15:01:13.272Z,7.76
2023-03-06T15:03:47.135Z,7.69
2023-03-06T15:06:45.665Z,7.61
2023-03-06T15:09:16.694Z,7.77
2023-03-06T15:12:04.555Z,7.99
2023-03-06T15:14:39.545Z,8.20
2023-03-06T15:17:18.473Z,8.69
2023-03-06T15:19:56.125Z,9.04
2023-03-06T15:22:31.996Z,8.92
2023-03-06T15:25:18.741Z,9.06
2023-03-06T15:27:49.902Z,8.93
2023-03-06T15:30:26.624Z,9.24
2023-03-06T15:33:19.893Z,9.34
2023-03-06T15:36:03.965Z,8.84
2023-03-06T15:38:39.874Z,8.47
2023-03-06T15:41:20.468Z,8.24
2023-03-06T15:43:49.942Z,7.87
2023-03-06T15:46:16.680Z,7.80
2023-03-06T15:48:54.189Z,7.71
2023-03-06T15:51:20.871Z,7.70
2023-03-06T15:53:48.100Z,7.75
2023-03-06T15:56:28.199Z,7.60
2023-03-06T15:58:56.085Z,7.38
2023-03-06T16:01:23.523Z,7.39
2023-03-06T16:03:55.481Z,7.24
2023-03-06T16:06:27.001Z,7.19
2023-03-06T16:08:56.502Z,7.20
2023-03-06T16:11:41.973Z,7.13
2023-03-06T16:14:18.878Z,7.09
2023-03-06T16:16:45.896Z,6.96
2023-03-06T16:19:29.015Z,6.89
2023-03-06T16:21:58.855Z,6.74
2023-03-06T16:24:26.712Z,6.28
2023-03-06T16:26:55.790Z,6.11
2023-03-06T16:29:24.917Z,6.05
2023-03-06T16:31:58.975Z,6.02
2023-03-06T16:34:26.025Z,5.97
2023-03-06T16:36:52.994Z,6.00
2023-03-06T16:39:21.725Z,6.10
2023-03-06T16:41:50.456Z,6.10
2023-03-06T16:44:17.127Z,6.05
2023-03-06T16:46:46.061Z,6.08
2023-03-06T16:49:20.981Z,6.14
2023-03-06T16:51:48.253Z,6.10
2023-03-06T16:54:18.368Z,6.17
2023-03-06T16:56:45.367Z,6.21
2023-03-06T16:59:12.462Z,6.26
2023-03-06T17:01:41.165Z,6.31
2023-03-06T17:04:08.353Z,6.31
2023-03-06T17:06:35.078Z,6.28
2023-03-06T17:09:01.987Z,6.24
2023-03-06T17:11:38.660Z,6.27
2023-03-06T17:14:06.967Z,6.31
2023-03-06T17:16:40.563Z,6.23
2023-03-06T17:19:07.846Z,6.19
2023-03-06T17:21:35.527Z,6.18
2023-03-06T17:24:03.887Z,6.12
2023-03-06T17:26:30.650Z,6.09
2023-03-06T17:28:57.464Z,6.10
2023-03-06T17:31:26.772Z,6.05
2023-03-06T17:33:57.223Z,6.08
2023-03-06T17:36:23.986Z,6.08
2023-03-06T17:38:50.845Z,6.07
2023-03-06T17:41:17.520Z,6.09
2023-03-06T17:43:44.233Z,6.06
2023-03-06T17:46:13.016Z,6.06
2023-03-06T17:48:39.959Z,6.06
2023-03-06T17:51:07.813Z,6.07
2023-03-06T17:53:34.780Z,6.00
2023-03-06T17:56:07.101Z,6.01
2023-03-06T17:58:34.355Z,5.92
2023-03-06T18:01:01.936Z,5.84
2023-03-06T18:03:28.774Z,5.88
2023-03-06T18:06:02.696Z,5.93
2023-03-06T18:08:29.995Z,5.81
2023-03-06T18:11:01.111Z,5.86
2023-03-06T18:13:27.800Z,5.87
2023-03-06T18:15:54.744Z,5.89
2023-03-06T18:18:21.327Z,5.94
2023-03-06T18:20:50.912Z,5.90
2023-03-06T18:23:17.851Z,5.93
2023-03-06T18:25:44.881Z,5.86
2023-03-06T18:28:11.595Z,5.90
2023-03-06T18:30:41.408Z,5.93
2023-03-06T18:33:09.374Z,5.91
2023-03-06T18:35:46.771Z,5.89
2023-03-06T18:38:13.727Z,5.87
2023-03-06T18:40:41.843Z,5.85
2023-03-06T18:43:08.522Z,5.85
2023-03-06T18:45:35.219Z,5.89
2023-03-06T18:48:05.035Z,5.89
2023-03-06T18:50:31.813Z,5.85
2023-03-06T18:52:58.390Z,5.83
2023-03-06T18:55:25.119Z,5.84
2023-03-06T18:57:51.751Z,5.88
2023-03-06T19:00:19.067Z,5.83
2023-03-06T19:02:45.689Z,5.84
2023-03-06T19:05:12.627Z,5.76
2023-03-06T19:07:39.327Z,5.74
2023-03-06T19:10:06.625Z,5.66
2023-03-06T19:12:33.757Z,5.65
2023-03-06T19:15:00.375Z,5.68
2023-03-06T19:17:27.008Z,5.69
2023-03-06T19:19:55.124Z,5.65
2023-03-06T19:22:22.247Z,5.71
2023-03-06T19:25:02.719Z,5.71
2023-03-06T19:27:30.686Z,5.71
2023-03-06T19:29:57.389Z,5.73
2023-03-06T19:32:25.206Z,5.72
2023-03-06T19:34:52.120Z,5.66
2023-03-06T19:37:18.964Z,5.74
2023-03-06T19:39:45.627Z,5.75
2023-03-06T19:42:13.892Z,5.69
2023-03-06T19:44:40.813Z,5.63
2023-03-06T19:47:07.523Z,5.58
2023-03-06T19:49:34.863Z,5.56
2023-03-06T19:52:01.540Z,5.56
2023-03-06T19:54:28.234Z,5.62
2023-03-06T19:56:54.912Z,5.60
2023-03-06T19:59:21.616Z,5.62
2023-03-06T20:01:48.310Z,5.57
2023-03-06T20:04:16.597Z,5.56
2023-03-06T20:06:45.537Z,5.53
2023-03-06T20:09:12.690Z,5.50
2023-03-06T20:11:39.442Z,5.50
2023-03-06T20:14:07.772Z,5.54
2023-03-06T20:16:35.212Z,5.46
2023-03-06T20:19:08.710Z,5.45
2023-03-06T20:21:37.703Z,5.46
2023-03-06T20:24:09.127Z,5.51
2023-03-06T20:26:37.082Z,5.51
2023-03-06T20:29:03.896Z,5.48
2023-03-06T20:31:30.765Z,5.47
2023-03-06T20:33:59.287Z,5.48
2023-03-06T20:36:30.946Z,5.48
2023-03-06T20:39:00.219Z,5.44
2023-03-06T20:41:28.230Z,5.46
2023-03-06T20:43:54.985Z,5.40
2023-03-06T20:46:22.810Z,5.38
2023-03-06T20:48:50.987Z,5.38
2023-03-06T20:51:21.694Z,5.41
2023-03-06T20:53:49.886Z,5.40
2023-03-06T20:56:18.723Z,5.42
2023-03-06T20:58:45.435Z,5.38
2023-03-06T21:01:23.513Z,5.38
2023-03-06T21:03:50.949Z,5.30
2023-03-06T21:06:18.242Z,5.32
2023-03-06T21:08:45.306Z,5.36
2023-03-06T21:11:12.029Z,5.43
2023-03-06T21:13:38.655Z,5.36
2023-03-06T21:16:11.057Z,5.38
2023-03-06T21:18:37.983Z,5.39
2023-03-06T21:21:09.211Z,5.37
2023-03-06T21:23:35.921Z,5.30
2023-03-06T21:26:02.970Z,5.31
2023-03-06T21:28:29.731Z,5.26
2023-03-06T21:30:56.809Z,5.18
2023-03-06T21:33:23.536Z,5.15
2023-03-06T21:35:50.295Z,5.16
2023-03-06T21:38:17.093Z,5.08
2023-03-06T21:40:45.567Z,5.00
2023-03-06T21:43:12.963Z,4.96
2023-03-06T21:45:44.165Z,4.95
2023-03-06T21:48:10.784Z,4.87
2023-03-06T21:50:37.396Z,4.84
2023-03-06T21:53:04.166Z,4.75
2023-03-06T21:55:30.937Z,4.72
2023-03-06T21:57:57.790Z,4.68
2023-03-06T22:00:25.863Z,4.66
2023-03-06T22:02:53.109Z,4.61
2023-03-06T22:05:19.868Z,4.61
2023-03-06T22:07:46.571Z,4.64
2023-03-06T22:10:14.418Z,4.62
2023-03-06T22:12:41.521Z,4.61
2023-03-06T22:15:09.588Z,4.61
2023-03-06T22:17:36.345Z,4.64
2023-03-06T22:20:03.060Z,4.62
2023-03-06T22:22:30.920Z,4.53
2023-03-06T22:24:57.838Z,4.59
2023-03-06T22:27:24.722Z,4.60
2023-03-06T22:29:52.714Z,4.61
2023-03-06T22:32:19.558Z,4.66
2023-03-06T22:34:46.254Z,4.69
2023-03-06T22:37:12.903Z,4.67
2023-03-06T22:39:39.514Z,4.69
2023-03-06T22:42:06.226Z,4.67
2023-03-06T22:44:32.852Z,4.62
2023-03-06T22:46:59.527Z,4.63
2023-03-06T22:49:26.150Z,4.64
2023-03-06T22:51:52.736Z,4.68
2023-03-06T22:54:19.437Z,4.70
2023-03-06T22:56:46.060Z,4.65
2023-03-06T22:59:12.662Z,4.71
2023-03-06T23:01:39.449Z,4.75
2023-03-06T23:04:11.371Z,4.72
2023-03-06T23:06:40.571Z,4.71
2023-03-06T23:09:12.972Z,4.75
2023-03-06T23:11:39.600Z,4.75
2023-03-06T23:14:06.476Z,4.72
2023-03-06T23:16:33.442Z,4.72
2023-03-06T23:19:00.340Z,4.75
2023-03-06T23:21:27.061Z,4.76
2023-03-06T23:23:54.531Z,4.79
2023-03-06T23:26:24.052Z,4.80
2023-03-06T23:28:51.136Z,4.83
2023-03-06T23:31:20.969Z,4.83
2023-03-06T23:33:48.129Z,4.86
2023-03-06T23:36:16.371Z,4.85
2023-03-06T23:38:43.661Z,4.87
2023-03-06T23:41:15.588Z,4.89
2023-03-06T23:43:42.771Z,4.94
2023-03-06T23:46:09.515Z,4.94
2023-03-06T23:48:38.081Z,4.97
2023-03-06T23:51:06.965Z,4.95
2023-03-06T23:53:33.558Z,4.98
2023-03-06T23:56:00.248Z,5.01
2023-03-06T23:58:27.227Z,5.06
